Long Island Mac Arthur Airport
KISP : now visible

Airfield :











YOU CAN JOIN US ON...

 
LOGIN :

Register | Disclaimer

   EN    FR    IT 

 









Legend :    VFR   Marginal VFR   IFR   Intensive IFR   Very Intensive IFR
Visi :
Ceiling :
>= 8 km
>= 3000ft
5 to 8 km
1000 to 3000 ft
1500m to 5 km
500 to 1000 ft
800 to 1500m
200 to 500 ft
< 800m
< 200 ft
Symbols :   Thunderstorms  Fog  Heavy snow  Heavy precipitations  Wind > 20 kt






- Airport Elevation : 99 ft
- IATA code : ISP


KISP - Long Island Mac Arthur

CURRENT METAR :
  • 211856Z 20016G25KT 10SM FEW015 SCT075 BKN250 14/11 A2953 RMK AO2 LTG DSNT NW SLP000 T01440106

EXPIRED METARs :
  • 211756Z 18017G24KT 10SM FEW025 BKN060 BKN090 14/11 A2957 RMK AO2 SLP012 60015 T01440106 10156 20122 56046
  • 211656Z 19012G19KT 10SM FEW035 SCT060 BKN110 14/12 A2961 RMK AO2 LTG DSNT SE RAE23 TSE39 SLP025 P0000 T01390117
  • 211645Z 18011KT 10SM VCTS FEW037 BKN060 BKN110 14/12 A2963 RMK AO2 LTG DSNT SE RAE23 TSE39 P0000 T01390122

TAF KISP
Valid from the 21 at 18:00 until the 22 at 18:00 UTC


211741Z 2118/2218 19015G23KT P6SM SCT035 BKN100
TEMPO 2119/2122 26025G40KT 2SM TSRA OVC035CB
FM212200 31019G30KT P6SM SCT050 SCT100
FM220800 29015G28KT P6SM SCT050
FM221200 30022G35KT P6SM SCT080
KZBW FIR / North America



MET'MAP, your aeronautical weather chart ! - Copyright ORBIFLY December 2007 - Disclaimer

ORBIFLY MET'MAP TEAM :

Programming & Development : Alexandra Zaïnal
Concept & original design : Baudouin d'Aumeries
Assistance for programming : Marc-Olivier Méhu
Technical & hardware support : Manuel Goepfert

Contact : metmap@orbifly.com




SOURCES & CREDITS :

   NOAA       Earth
Advisory